sensor_id;sensor_type;location;lat;lon;timestamp;P1;durP1;ratioP1;P2;durP2;ratioP2
16699;SDS011;8466;52.286;21.124;2023-12-20T00:01:06;59.23;;;29.77;;
16699;SDS011;8466;52.286;21.124;2023-12-20T00:03:42;36.23;;;20.10;;
16699;SDS011;8466;52.286;21.124;2023-12-20T00:06:22;20.23;;;15.63;;
16699;SDS011;8466;52.286;21.124;2023-12-20T00:08:51;19.80;;;16.03;;
16699;SDS011;8466;52.286;21.124;2023-12-20T00:11:22;17.93;;;15.40;;
16699;SDS011;8466;52.286;21.124;2023-12-20T00:13:50;19.60;;;15.50;;
16699;SDS011;8466;52.286;21.124;2023-12-20T00:16:20;17.33;;;13.80;;
16699;SDS011;8466;52.286;21.124;2023-12-20T00:18:50;19.70;;;14.73;;
16699;SDS011;8466;52.286;21.124;2023-12-20T00:21:19;19.00;;;15.23;;
16699;SDS011;8466;52.286;21.124;2023-12-20T00:23:48;17.77;;;15.00;;
16699;SDS011;8466;52.286;21.124;2023-12-20T00:26:17;14.00;;;12.50;;
16699;SDS011;8466;52.286;21.124;2023-12-20T00:28:50;14.40;;;12.90;;
16699;SDS011;8466;52.286;21.124;2023-12-20T00:31:46;14.03;;;12.50;;
16699;SDS011;8466;52.286;21.124;2023-12-20T00:34:15;14.23;;;12.70;;
16699;SDS011;8466;52.286;21.124;2023-12-20T00:36:47;13.37;;;11.93;;
16699;SDS011;8466;52.286;21.124;2023-12-20T00:39:16;14.67;;;12.47;;
16699;SDS011;8466;52.286;21.124;2023-12-20T00:41:45;15.77;;;13.47;;
16699;SDS011;8466;52.286;21.124;2023-12-20T00:44:16;13.77;;;11.33;;
16699;SDS011;8466;52.286;21.124;2023-12-20T00:46:45;13.47;;;12.07;;
16699;SDS011;8466;52.286;21.124;2023-12-20T00:49:14;13.93;;;11.43;;
16699;SDS011;8466;52.286;21.124;2023-12-20T00:51:43;12.63;;;11.17;;
16699;SDS011;8466;52.286;21.124;2023-12-20T00:54:13;13.77;;;12.30;;
16699;SDS011;8466;52.286;21.124;2023-12-20T00:56:42;13.30;;;11.90;;
16699;SDS011;8466;52.286;21.124;2023-12-20T00:59:11;12.77;;;11.47;;
16699;SDS011;8466;52.286;21.124;2023-12-20T01:01:43;15.70;;;11.63;;
16699;SDS011;8466;52.286;21.124;2023-12-20T01:04:12;13.77;;;12.37;;
16699;SDS011;8466;52.286;21.124;2023-12-20T01:06:41;13.47;;;12.00;;
16699;SDS011;8466;52.286;21.124;2023-12-20T01:09:10;14.23;;;12.50;;
16699;SDS011;8466;52.286;21.124;2023-12-20T01:11:39;16.40;;;13.37;;
16699;SDS011;8466;52.286;21.124;2023-12-20T01:14:08;13.87;;;12.47;;
16699;SDS011;8466;52.286;21.124;2023-12-20T01:16:37;14.10;;;12.60;;
16699;SDS011;8466;52.286;21.124;2023-12-20T01:19:08;12.23;;;10.93;;
16699;SDS011;8466;52.286;21.124;2023-12-20T01:21:37;13.03;;;11.70;;
16699;SDS011;8466;52.286;21.124;2023-12-20T01:24:06;12.90;;;11.60;;
16699;SDS011;8466;52.286;21.124;2023-12-20T01:26:35;12.60;;;11.30;;
16699;SDS011;8466;52.286;21.124;2023-12-20T01:29:04;12.90;;;11.50;;
16699;SDS011;8466;52.286;21.124;2023-12-20T01:31:33;12.93;;;11.63;;
16699;SDS011;8466;52.286;21.124;2023-12-20T01:34:02;12.57;;;11.27;;
16699;SDS011;8466;52.286;21.124;2023-12-20T01:36:33;12.30;;;11.10;;
16699;SDS011;8466;52.286;21.124;2023-12-20T01:39:02;12.87;;;11.43;;
16699;SDS011;8466;52.286;21.124;2023-12-20T01:41:38;12.57;;;10.57;;
16699;SDS011;8466;52.286;21.124;2023-12-20T01:44:07;12.87;;;11.60;;
16699;SDS011;8466;52.286;21.124;2023-12-20T01:46:36;12.13;;;10.90;;
16699;SDS011;8466;52.286;21.124;2023-12-20T01:49:06;12.53;;;11.17;;
16699;SDS011;8466;52.286;21.124;2023-12-20T01:51:38;12.30;;;11.10;;
16699;SDS011;8466;52.286;21.124;2023-12-20T01:54:07;11.07;;;9.97;;
16699;SDS011;8466;52.286;21.124;2023-12-20T01:56:36;10.97;;;9.87;;
16699;SDS011;8466;52.286;21.124;2023-12-20T01:59:06;11.13;;;10.03;;
16699;SDS011;8466;52.286;21.124;2023-12-20T02:01:35;10.73;;;9.07;;
16699;SDS011;8466;52.286;21.124;2023-12-20T02:04:04;11.43;;;10.30;;
16699;SDS011;8466;52.286;21.124;2023-12-20T02:06:34;10.07;;;9.07;;
16699;SDS011;8466;52.286;21.124;2023-12-20T02:09:05;10.93;;;9.80;;
16699;SDS011;8466;52.286;21.124;2023-12-20T02:11:36;11.40;;;10.30;;
16699;SDS011;8466;52.286;21.124;2023-12-20T02:14:06;11.50;;;10.40;;
16699;SDS011;8466;52.286;21.124;2023-12-20T02:16:35;11.10;;;10.03;;
16699;SDS011;8466;52.286;21.124;2023-12-20T02:19:04;11.13;;;10.03;;
16699;SDS011;8466;52.286;21.124;2023-12-20T02:21:49;10.20;;;9.20;;
16699;SDS011;8466;52.286;21.124;2023-12-20T02:24:19;11.40;;;9.97;;
16699;SDS011;8466;52.286;21.124;2023-12-20T02:26:48;11.00;;;9.90;;
16699;SDS011;8466;52.286;21.124;2023-12-20T02:29:16;10.37;;;9.37;;
16699;SDS011;8466;52.286;21.124;2023-12-20T02:31:46;9.83;;;8.93;;
16699;SDS011;8466;52.286;21.124;2023-12-20T02:34:15;10.67;;;9.60;;
16699;SDS011;8466;52.286;21.124;2023-12-20T02:36:44;10.23;;;9.20;;
16699;SDS011;8466;52.286;21.124;2023-12-20T02:39:21;10.40;;;9.40;;
16699;SDS011;8466;52.286;21.124;2023-12-20T02:41:51;9.67;;;8.77;;
16699;SDS011;8466;52.286;21.124;2023-12-20T02:44:20;9.33;;;8.43;;
16699;SDS011;8466;52.286;21.124;2023-12-20T02:46:49;8.80;;;7.97;;
16699;SDS011;8466;52.286;21.124;2023-12-20T02:49:18;9.30;;;8.40;;
16699;SDS011;8466;52.286;21.124;2023-12-20T02:51:48;9.00;;;7.97;;
16699;SDS011;8466;52.286;21.124;2023-12-20T02:54:17;8.50;;;7.70;;
16699;SDS011;8466;52.286;21.124;2023-12-20T02:56:54;8.67;;;7.87;;
16699;SDS011;8466;52.286;21.124;2023-12-20T02:59:25;8.57;;;7.70;;
16699;SDS011;8466;52.286;21.124;2023-12-20T03:01:54;8.70;;;7.17;;
16699;SDS011;8466;52.286;21.124;2023-12-20T03:04:23;8.70;;;7.90;;
16699;SDS011;8466;52.286;21.124;2023-12-20T03:06:52;8.10;;;7.30;;
16699;SDS011;8466;52.286;21.124;2023-12-20T03:09:21;8.13;;;7.40;;
16699;SDS011;8466;52.286;21.124;2023-12-20T03:11:50;7.63;;;6.90;;
16699;SDS011;8466;52.286;21.124;2023-12-20T03:14:20;7.73;;;6.93;;
16699;SDS011;8466;52.286;21.124;2023-12-20T03:16:49;7.50;;;6.80;;
16699;SDS011;8466;52.286;21.124;2023-12-20T03:19:18;7.60;;;6.87;;
16699;SDS011;8466;52.286;21.124;2023-12-20T03:21:47;7.97;;;7.17;;
16699;SDS011;8466;52.286;21.124;2023-12-20T03:24:16;7.10;;;6.40;;
16699;SDS011;8466;52.286;21.124;2023-12-20T03:26:45;8.80;;;6.73;;
16699;SDS011;8466;52.286;21.124;2023-12-20T03:29:14;7.37;;;6.67;;
16699;SDS011;8466;52.286;21.124;2023-12-20T03:31:44;8.17;;;7.37;;
16699;SDS011;8466;52.286;21.124;2023-12-20T03:34:13;7.73;;;7.03;;
16699;SDS011;8466;52.286;21.124;2023-12-20T03:36:42;7.90;;;7.20;;
16699;SDS011;8466;52.286;21.124;2023-12-20T03:39:11;8.63;;;7.83;;
16699;SDS011;8466;52.286;21.124;2023-12-20T03:41:40;8.80;;;7.93;;
16699;SDS011;8466;52.286;21.124;2023-12-20T03:44:09;7.80;;;7.10;;
16699;SDS011;8466;52.286;21.124;2023-12-20T03:46:37;7.80;;;7.10;;
16699;SDS011;8466;52.286;21.124;2023-12-20T03:49:08;7.77;;;7.07;;
16699;SDS011;8466;52.286;21.124;2023-12-20T03:51:37;8.00;;;7.00;;
16699;SDS011;8466;52.286;21.124;2023-12-20T03:54:06;7.60;;;6.83;;
16699;SDS011;8466;52.286;21.124;2023-12-20T03:56:35;8.43;;;7.63;;
16699;SDS011;8466;52.286;21.124;2023-12-20T03:59:04;9.20;;;8.30;;
16699;SDS011;8466;52.286;21.124;2023-12-20T04:01:32;7.80;;;7.10;;
16699;SDS011;8466;52.286;21.124;2023-12-20T04:04:01;9.20;;;8.33;;
16699;SDS011;8466;52.286;21.124;2023-12-20T04:06:32;8.47;;;7.67;;
16699;SDS011;8466;52.286;21.124;2023-12-20T04:09:01;8.47;;;7.67;;
16699;SDS011;8466;52.286;21.124;2023-12-20T04:11:30;9.37;;;8.37;;
16699;SDS011;8466;52.286;21.124;2023-12-20T04:13:58;8.60;;;7.80;;
16699;SDS011;8466;52.286;21.124;2023-12-20T04:16:27;9.33;;;8.43;;
16699;SDS011;8466;52.286;21.124;2023-12-20T04:18:58;9.37;;;8.47;;
16699;SDS011;8466;52.286;21.124;2023-12-20T04:21:28;9.80;;;8.43;;
16699;SDS011;8466;52.286;21.124;2023-12-20T04:23:58;9.53;;;8.63;;
16699;SDS011;8466;52.286;21.124;2023-12-20T04:26:27;9.53;;;8.53;;
16699;SDS011;8466;52.286;21.124;2023-12-20T04:28:56;9.50;;;8.60;;
16699;SDS011;8466;52.286;21.124;2023-12-20T04:31:28;9.40;;;8.50;;
16699;SDS011;8466;52.286;21.124;2023-12-20T04:34:00;10.57;;;8.83;;
16699;SDS011;8466;52.286;21.124;2023-12-20T04:36:30;9.63;;;8.73;;
16699;SDS011;8466;52.286;21.124;2023-12-20T04:39:03;9.60;;;8.70;;
16699;SDS011;8466;52.286;21.124;2023-12-20T04:41:33;10.03;;;9.10;;
16699;SDS011;8466;52.286;21.124;2023-12-20T04:44:02;9.47;;;8.57;;
16699;SDS011;8466;52.286;21.124;2023-12-20T04:46:31;10.73;;;9.17;;
16699;SDS011;8466;52.286;21.124;2023-12-20T04:48:59;9.43;;;8.47;;
16699;SDS011;8466;52.286;21.124;2023-12-20T04:51:28;8.60;;;7.80;;
16699;SDS011;8466;52.286;21.124;2023-12-20T04:53:57;9.63;;;8.60;;
16699;SDS011;8466;52.286;21.124;2023-12-20T04:56:27;9.60;;;8.47;;
16699;SDS011;8466;52.286;21.124;2023-12-20T04:58:56;9.07;;;8.27;;
16699;SDS011;8466;52.286;21.124;2023-12-20T05:01:25;9.40;;;8.40;;
16699;SDS011;8466;52.286;21.124;2023-12-20T05:03:54;9.43;;;8.53;;
16699;SDS011;8466;52.286;21.124;2023-12-20T05:06:23;10.40;;;9.50;;
16699;SDS011;8466;52.286;21.124;2023-12-20T05:08:52;9.50;;;8.63;;
16699;SDS011;8466;52.286;21.124;2023-12-20T05:11:21;9.93;;;9.03;;
16699;SDS011;8466;52.286;21.124;2023-12-20T05:13:51;10.07;;;9.17;;
16699;SDS011;8466;52.286;21.124;2023-12-20T05:16:20;9.20;;;8.40;;
16699;SDS011;8466;52.286;21.124;2023-12-20T05:18:50;9.77;;;8.90;;
16699;SDS011;8466;52.286;21.124;2023-12-20T05:21:19;8.87;;;8.07;;
16699;SDS011;8466;52.286;21.124;2023-12-20T05:23:48;8.97;;;8.17;;
16699;SDS011;8466;52.286;21.124;2023-12-20T05:26:17;9.17;;;8.30;;
16699;SDS011;8466;52.286;21.124;2023-12-20T05:28:45;8.80;;;7.90;;
16699;SDS011;8466;52.286;21.124;2023-12-20T05:31:16;8.77;;;8.03;;
16699;SDS011;8466;52.286;21.124;2023-12-20T05:33:45;10.00;;;9.00;;
16699;SDS011;8466;52.286;21.124;2023-12-20T05:36:14;9.60;;;8.70;;
16699;SDS011;8466;52.286;21.124;2023-12-20T05:38:48;10.73;;;9.63;;
16699;SDS011;8466;52.286;21.124;2023-12-20T05:41:17;9.97;;;9.00;;
16699;SDS011;8466;52.286;21.124;2023-12-20T05:43:46;10.00;;;9.10;;
16699;SDS011;8466;52.286;21.124;2023-12-20T05:49:03;10.33;;;9.20;;
16699;SDS011;8466;52.286;21.124;2023-12-20T05:51:32;11.23;;;10.13;;
16699;SDS011;8466;52.286;21.124;2023-12-20T05:54:01;11.30;;;10.20;;
16699;SDS011;8466;52.286;21.124;2023-12-20T05:56:30;11.33;;;10.17;;
16699;SDS011;8466;52.286;21.124;2023-12-20T05:58:59;11.47;;;10.37;;
16699;SDS011;8466;52.286;21.124;2023-12-20T06:01:28;11.10;;;10.00;;
16699;SDS011;8466;52.286;21.124;2023-12-20T06:03:59;11.73;;;10.53;;
16699;SDS011;8466;52.286;21.124;2023-12-20T06:06:27;11.03;;;9.93;;
16699;SDS011;8466;52.286;21.124;2023-12-20T06:08:57;11.67;;;10.50;;
16699;SDS011;8466;52.286;21.124;2023-12-20T06:11:25;11.07;;;9.90;;
16699;SDS011;8466;52.286;21.124;2023-12-20T06:13:54;11.73;;;10.63;;
16699;SDS011;8466;52.286;21.124;2023-12-20T06:16:23;11.93;;;10.77;;
16699;SDS011;8466;52.286;21.124;2023-12-20T06:18:52;12.23;;;10.93;;
16699;SDS011;8466;52.286;21.124;2023-12-20T06:21:22;13.47;;;12.07;;
16699;SDS011;8466;52.286;21.124;2023-12-20T06:23:51;13.40;;;11.63;;
16699;SDS011;8466;52.286;21.124;2023-12-20T06:26:19;13.23;;;11.73;;
16699;SDS011;8466;52.286;21.124;2023-12-20T06:28:48;13.17;;;11.70;;
16699;SDS011;8466;52.286;21.124;2023-12-20T06:31:17;11.97;;;10.80;;
16699;SDS011;8466;52.286;21.124;2023-12-20T06:33:45;13.50;;;12.10;;
16699;SDS011;8466;52.286;21.124;2023-12-20T06:36:16;13.40;;;11.80;;
16699;SDS011;8466;52.286;21.124;2023-12-20T06:38:46;12.97;;;11.67;;
16699;SDS011;8466;52.286;21.124;2023-12-20T06:41:15;11.73;;;10.57;;
16699;SDS011;8466;52.286;21.124;2023-12-20T06:43:44;11.23;;;10.13;;
16699;SDS011;8466;52.286;21.124;2023-12-20T06:46:16;10.80;;;9.70;;
16699;SDS011;8466;52.286;21.124;2023-12-20T06:48:45;9.63;;;8.63;;
16699;SDS011;8466;52.286;21.124;2023-12-20T06:51:14;9.60;;;8.60;;
16699;SDS011;8466;52.286;21.124;2023-12-20T06:53:44;10.57;;;9.60;;
16699;SDS011;8466;52.286;21.124;2023-12-20T06:56:14;11.10;;;10.00;;
16699;SDS011;8466;52.286;21.124;2023-12-20T06:58:45;11.50;;;10.27;;
16699;SDS011;8466;52.286;21.124;2023-12-20T07:01:14;10.63;;;9.53;;
16699;SDS011;8466;52.286;21.124;2023-12-20T07:03:44;11.10;;;10.10;;
16699;SDS011;8466;52.286;21.124;2023-12-20T07:06:14;10.30;;;9.27;;
16699;SDS011;8466;52.286;21.124;2023-12-20T07:08:43;9.83;;;8.83;;
16699;SDS011;8466;52.286;21.124;2023-12-20T07:11:14;10.83;;;9.73;;
16699;SDS011;8466;52.286;21.124;2023-12-20T07:13:44;10.37;;;9.37;;
16699;SDS011;8466;52.286;21.124;2023-12-20T07:16:13;11.13;;;10.03;;
16699;SDS011;8466;52.286;21.124;2023-12-20T07:18:42;11.03;;;10.00;;
16699;SDS011;8466;52.286;21.124;2023-12-20T07:21:11;10.60;;;9.53;;
16699;SDS011;8466;52.286;21.124;2023-12-20T07:23:41;11.10;;;9.97;;
16699;SDS011;8466;52.286;21.124;2023-12-20T07:26:10;14.00;;;11.33;;
16699;SDS011;8466;52.286;21.124;2023-12-20T07:28:44;14.03;;;10.80;;
16699;SDS011;8466;52.286;21.124;2023-12-20T07:31:15;13.20;;;11.30;;
16699;SDS011;8466;52.286;21.124;2023-12-20T07:33:44;14.07;;;12.68;;
16699;SDS011;8466;52.286;21.124;2023-12-20T07:36:13;13.47;;;12.07;;
16699;SDS011;8466;52.286;21.124;2023-12-20T07:38:43;12.77;;;11.47;;
16699;SDS011;8466;52.286;21.124;2023-12-20T07:41:15;13.80;;;11.37;;
16699;SDS011;8466;52.286;21.124;2023-12-20T07:43:49;13.40;;;12.00;;
16699;SDS011;8466;52.286;21.124;2023-12-20T07:46:19;14.17;;;12.67;;
16699;SDS011;8466;52.286;21.124;2023-12-20T07:48:51;14.37;;;11.87;;
16699;SDS011;8466;52.286;21.124;2023-12-20T07:51:21;13.17;;;11.17;;
16699;SDS011;8466;52.286;21.124;2023-12-20T07:53:50;13.25;;;11.95;;
16699;SDS011;8466;52.286;21.124;2023-12-20T07:56:19;13.43;;;11.87;;
16699;SDS011;8466;52.286;21.124;2023-12-20T07:58:50;11.43;;;10.23;;
16699;SDS011;8466;52.286;21.124;2023-12-20T08:01:38;14.63;;;12.77;;
16699;SDS011;8466;52.286;21.124;2023-12-20T08:04:06;22.73;;;15.50;;
16699;SDS011;8466;52.286;21.124;2023-12-20T08:06:35;18.30;;;13.30;;
16699;SDS011;8466;52.286;21.124;2023-12-20T08:09:04;13.83;;;11.27;;
16699;SDS011;8466;52.286;21.124;2023-12-20T08:11:33;10.00;;;9.00;;
16699;SDS011;8466;52.286;21.124;2023-12-20T08:14:08;11.83;;;10.23;;
16699;SDS011;8466;52.286;21.124;2023-12-20T08:20:44;11.73;;;10.63;;
16699;SDS011;8466;52.286;21.124;2023-12-20T08:24:14;10.77;;;9.67;;
16699;SDS011;8466;52.286;21.124;2023-12-20T08:33:39;10.23;;;9.10;;
16699;SDS011;8466;52.286;21.124;2023-12-20T08:36:09;16.33;;;11.43;;
16699;SDS011;8466;52.286;21.124;2023-12-20T08:38:46;15.20;;;11.63;;
16699;SDS011;8466;52.286;21.124;2023-12-20T08:41:27;10.77;;;9.60;;
16699;SDS011;8466;52.286;21.124;2023-12-20T08:47:08;9.50;;;8.53;;
16699;SDS011;8466;52.286;21.124;2023-12-20T08:49:44;11.50;;;9.97;;
16699;SDS011;8466;52.286;21.124;2023-12-20T08:52:19;11.03;;;9.70;;
16699;SDS011;8466;52.286;21.124;2023-12-20T08:55:05;11.63;;;9.00;;
16699;SDS011;8466;52.286;21.124;2023-12-20T08:58:02;8.77;;;7.83;;
16699;SDS011;8466;52.286;21.124;2023-12-20T09:00:40;8.37;;;7.57;;
16699;SDS011;8466;52.286;21.124;2023-12-20T09:04:47;7.90;;;7.13;;
16699;SDS011;8466;52.286;21.124;2023-12-20T09:18:04;13.47;;;9.97;;
16699;SDS011;8466;52.286;21.124;2023-12-20T09:20:37;13.90;;;10.23;;
16699;SDS011;8466;52.286;21.124;2023-12-20T09:23:20;21.03;;;13.07;;
16699;SDS011;8466;52.286;21.124;2023-12-20T09:25:50;18.03;;;12.10;;
16699;SDS011;8466;52.286;21.124;2023-12-20T09:28:25;12.83;;;9.80;;
16699;SDS011;8466;52.286;21.124;2023-12-20T09:30:53;13.50;;;10.33;;
16699;SDS011;8466;52.286;21.124;2023-12-20T09:33:23;13.77;;;10.20;;
16699;SDS011;8466;52.286;21.124;2023-12-20T09:35:52;14.10;;;10.40;;
16699;SDS011;8466;52.286;21.124;2023-12-20T09:38:22;12.93;;;10.88;;
16699;SDS011;8466;52.286;21.124;2023-12-20T09:40:51;14.53;;;11.20;;
16699;SDS011;8466;52.286;21.124;2023-12-20T09:43:23;13.93;;;11.40;;
16699;SDS011;8466;52.286;21.124;2023-12-20T09:45:55;11.33;;;9.17;;
16699;SDS011;8466;52.286;21.124;2023-12-20T09:48:29;13.70;;;10.50;;
16699;SDS011;8466;52.286;21.124;2023-12-20T09:50:59;15.93;;;12.63;;
16699;SDS011;8466;52.286;21.124;2023-12-20T09:53:29;10.80;;;8.90;;
16699;SDS011;8466;52.286;21.124;2023-12-20T09:56:01;12.63;;;10.07;;
16699;SDS011;8466;52.286;21.124;2023-12-20T09:58:31;12.45;;;11.27;;
16699;SDS011;8466;52.286;21.124;2023-12-20T10:01:00;8.50;;;7.70;;
16699;SDS011;8466;52.286;21.124;2023-12-20T10:03:30;7.60;;;7.00;;
16699;SDS011;8466;52.286;21.124;2023-12-20T10:05:59;8.70;;;7.90;;
16699;SDS011;8466;52.286;21.124;2023-12-20T10:08:30;10.87;;;9.00;;
16699;SDS011;8466;52.286;21.124;2023-12-20T10:10:59;16.37;;;10.63;;
16699;SDS011;8466;52.286;21.124;2023-12-20T10:13:29;9.93;;;8.17;;
16699;SDS011;8466;52.286;21.124;2023-12-20T10:15:59;8.00;;;6.97;;
16699;SDS011;8466;52.286;21.124;2023-12-20T10:18:29;8.10;;;7.30;;
16699;SDS011;8466;52.286;21.124;2023-12-20T10:21:05;8.87;;;7.80;;
16699;SDS011;8466;52.286;21.124;2023-12-20T10:23:38;8.30;;;7.13;;
16699;SDS011;8466;52.286;21.124;2023-12-20T10:26:08;12.27;;;9.63;;
16699;SDS011;8466;52.286;21.124;2023-12-20T10:28:37;7.60;;;6.80;;
16699;SDS011;8466;52.286;21.124;2023-12-20T10:31:06;7.67;;;6.33;;
16699;SDS011;8466;52.286;21.124;2023-12-20T10:33:35;7.67;;;6.70;;
16699;SDS011;8466;52.286;21.124;2023-12-20T10:36:04;7.13;;;6.47;;
16699;SDS011;8466;52.286;21.124;2023-12-20T10:38:34;7.40;;;6.60;;
16699;SDS011;8466;52.286;21.124;2023-12-20T10:41:05;7.10;;;6.43;;
16699;SDS011;8466;52.286;21.124;2023-12-20T10:43:35;13.80;;;11.13;;
16699;SDS011;8466;52.286;21.124;2023-12-20T10:46:05;13.83;;;9.90;;
16699;SDS011;8466;52.286;21.124;2023-12-20T10:48:34;19.50;;;13.63;;
16699;SDS011;8466;52.286;21.124;2023-12-20T10:51:04;14.60;;;10.43;;
16699;SDS011;8466;52.286;21.124;2023-12-20T10:53:37;10.13;;;9.03;;
16699;SDS011;8466;52.286;21.124;2023-12-20T10:56:10;11.73;;;10.23;;
16699;SDS011;8466;52.286;21.124;2023-12-20T10:58:43;11.57;;;9.83;;
16699;SDS011;8466;52.286;21.124;2023-12-20T11:01:14;9.23;;;8.23;;
16699;SDS011;8466;52.286;21.124;2023-12-20T11:03:45;12.53;;;9.27;;
16699;SDS011;8466;52.286;21.124;2023-12-20T11:06:22;10.20;;;8.50;;
16699;SDS011;8466;52.286;21.124;2023-12-20T11:08:59;14.07;;;11.17;;
16699;SDS011;8466;52.286;21.124;2023-12-20T11:11:39;12.13;;;9.60;;
16699;SDS011;8466;52.286;21.124;2023-12-20T11:14:20;15.73;;;11.37;;
16699;SDS011;8466;52.286;21.124;2023-12-20T11:17:05;18.90;;;12.87;;
16699;SDS011;8466;52.286;21.124;2023-12-20T11:19:36;26.03;;;17.37;;
16699;SDS011;8466;52.286;21.124;2023-12-20T11:22:06;22.63;;;15.53;;
16699;SDS011;8466;52.286;21.124;2023-12-20T11:24:35;17.03;;;13.43;;
16699;SDS011;8466;52.286;21.124;2023-12-20T11:27:14;24.47;;;16.47;;
16699;SDS011;8466;52.286;21.124;2023-12-20T11:29:43;13.77;;;12.03;;
16699;SDS011;8466;52.286;21.124;2023-12-20T11:32:29;12.37;;;11.07;;
16699;SDS011;8466;52.286;21.124;2023-12-20T11:34:58;13.33;;;11.33;;
16699;SDS011;8466;52.286;21.124;2023-12-20T11:37:29;14.60;;;11.60;;
16699;SDS011;8466;52.286;21.124;2023-12-20T11:40:00;10.83;;;9.73;;
16699;SDS011;8466;52.286;21.124;2023-12-20T11:42:35;15.33;;;13.10;;
16699;SDS011;8466;52.286;21.124;2023-12-20T11:45:10;11.20;;;9.50;;
16699;SDS011;8466;52.286;21.124;2023-12-20T11:47:42;10.20;;;9.10;;
16699;SDS011;8466;52.286;21.124;2023-12-20T11:50:14;11.07;;;9.63;;
16699;SDS011;8466;52.286;21.124;2023-12-20T11:52:44;8.97;;;8.07;;
16699;SDS011;8466;52.286;21.124;2023-12-20T11:55:14;7.73;;;6.80;;
16699;SDS011;8466;52.286;21.124;2023-12-20T11:57:45;7.70;;;6.80;;
16699;SDS011;8466;52.286;21.124;2023-12-20T12:00:15;8.27;;;7.47;;
16699;SDS011;8466;52.286;21.124;2023-12-20T12:02:54;7.53;;;6.83;;
16699;SDS011;8466;52.286;21.124;2023-12-20T12:05:30;6.87;;;6.27;;
16699;SDS011;8466;52.286;21.124;2023-12-20T12:08:42;6.23;;;5.63;;
16699;SDS011;8466;52.286;21.124;2023-12-20T12:11:03;7.00;;;6.10;;
16699;SDS011;8466;52.286;21.124;2023-12-20T12:13:37;7.83;;;6.87;;
16699;SDS011;8466;52.286;21.124;2023-12-20T12:16:22;8.50;;;7.63;;
16699;SDS011;8466;52.286;21.124;2023-12-20T12:18:55;9.87;;;8.63;;
16699;SDS011;8466;52.286;21.124;2023-12-20T12:21:31;10.40;;;9.30;;
16699;SDS011;8466;52.286;21.124;2023-12-20T12:24:07;10.23;;;8.13;;
16699;SDS011;8466;52.286;21.124;2023-12-20T12:26:36;7.43;;;5.87;;
16699;SDS011;8466;52.286;21.124;2023-12-20T12:29:08;5.90;;;4.67;;
16699;SDS011;8466;52.286;21.124;2023-12-20T12:31:37;4.50;;;3.53;;
16699;SDS011;8466;52.286;21.124;2023-12-20T12:34:07;5.50;;;3.60;;
16699;SDS011;8466;52.286;21.124;2023-12-20T12:36:36;4.10;;;3.67;;
16699;SDS011;8466;52.286;21.124;2023-12-20T12:39:05;6.40;;;4.83;;
16699;SDS011;8466;52.286;21.124;2023-12-20T12:41:34;7.93;;;5.77;;
16699;SDS011;8466;52.286;21.124;2023-12-20T12:44:05;6.90;;;5.77;;
16699;SDS011;8466;52.286;21.124;2023-12-20T12:46:43;9.47;;;7.47;;
16699;SDS011;8466;52.286;21.124;2023-12-20T12:49:12;9.60;;;8.60;;
16699;SDS011;8466;52.286;21.124;2023-12-20T12:51:41;9.50;;;8.60;;
16699;SDS011;8466;52.286;21.124;2023-12-20T12:54:11;8.27;;;6.80;;
16699;SDS011;8466;52.286;21.124;2023-12-20T12:56:42;8.23;;;7.43;;
16699;SDS011;8466;52.286;21.124;2023-12-20T12:59:15;8.17;;;7.37;;
16699;SDS011;8466;52.286;21.124;2023-12-20T13:01:43;10.30;;;7.83;;
16699;SDS011;8466;52.286;21.124;2023-12-20T13:04:12;8.57;;;7.67;;
16699;SDS011;8466;52.286;21.124;2023-12-20T13:06:41;9.35;;;8.32;;
16699;SDS011;8466;52.286;21.124;2023-12-20T13:09:10;8.77;;;7.73;;
16699;SDS011;8466;52.286;21.124;2023-12-20T13:11:39;12.47;;;8.90;;
16699;SDS011;8466;52.286;21.124;2023-12-20T13:14:07;9.03;;;8.17;;
16699;SDS011;8466;52.286;21.124;2023-12-20T13:16:43;9.17;;;8.27;;
16699;SDS011;8466;52.286;21.124;2023-12-20T13:19:12;9.90;;;8.90;;
16699;SDS011;8466;52.286;21.124;2023-12-20T13:21:41;10.40;;;9.40;;
16699;SDS011;8466;52.286;21.124;2023-12-20T13:24:10;14.13;;;10.80;;
16699;SDS011;8466;52.286;21.124;2023-12-20T13:26:39;10.43;;;9.43;;
16699;SDS011;8466;52.286;21.124;2023-12-20T13:29:07;10.60;;;9.50;;
16699;SDS011;8466;52.286;21.124;2023-12-20T13:31:36;11.83;;;10.30;;
16699;SDS011;8466;52.286;21.124;2023-12-20T13:34:07;12.17;;;10.47;;
16699;SDS011;8466;52.286;21.124;2023-12-20T13:36:36;14.40;;;11.17;;
16699;SDS011;8466;52.286;21.124;2023-12-20T13:39:05;14.43;;;12.90;;
16699;SDS011;8466;52.286;21.124;2023-12-20T13:41:34;12.90;;;11.50;;
16699;SDS011;8466;52.286;21.124;2023-12-20T13:44:03;13.40;;;11.30;;
16699;SDS011;8466;52.286;21.124;2023-12-20T13:46:32;12.27;;;11.07;;
16699;SDS011;8466;52.286;21.124;2023-12-20T13:49:01;14.53;;;12.80;;
16699;SDS011;8466;52.286;21.124;2023-12-20T13:51:31;14.30;;;12.60;;
16699;SDS011;8466;52.286;21.124;2023-12-20T13:54:00;14.50;;;12.43;;
16699;SDS011;8466;52.286;21.124;2023-12-20T13:56:29;12.17;;;10.90;;
16699;SDS011;8466;52.286;21.124;2023-12-20T13:59:01;12.30;;;11.00;;
16699;SDS011;8466;52.286;21.124;2023-12-20T14:01:30;13.80;;;12.23;;
16699;SDS011;8466;52.286;21.124;2023-12-20T14:03:59;17.30;;;13.90;;
16699;SDS011;8466;52.286;21.124;2023-12-20T14:06:29;15.00;;;13.40;;
16699;SDS011;8466;52.286;21.124;2023-12-20T14:09:00;15.23;;;13.30;;
16699;SDS011;8466;52.286;21.124;2023-12-20T14:11:29;17.57;;;13.27;;
16699;SDS011;8466;52.286;21.124;2023-12-20T14:13:58;16.17;;;13.07;;
16699;SDS011;8466;52.286;21.124;2023-12-20T14:16:28;15.13;;;13.27;;
16699;SDS011;8466;52.286;21.124;2023-12-20T14:18:57;16.90;;;14.17;;
16699;SDS011;8466;52.286;21.124;2023-12-20T14:21:26;17.63;;;14.07;;
16699;SDS011;8466;52.286;21.124;2023-12-20T14:23:55;17.63;;;14.53;;
16699;SDS011;8466;52.286;21.124;2023-12-20T14:26:25;16.63;;;13.40;;
16699;SDS011;8466;52.286;21.124;2023-12-20T14:28:54;19.03;;;13.60;;
16699;SDS011;8466;52.286;21.124;2023-12-20T14:31:23;13.80;;;11.43;;
16699;SDS011;8466;52.286;21.124;2023-12-20T14:33:51;13.50;;;11.63;;
16699;SDS011;8466;52.286;21.124;2023-12-20T14:36:21;13.03;;;11.67;;
16699;SDS011;8466;52.286;21.124;2023-12-20T14:38:50;11.30;;;9.60;;
16699;SDS011;8466;52.286;21.124;2023-12-20T14:41:19;10.33;;;9.23;;
16699;SDS011;8466;52.286;21.124;2023-12-20T14:43:52;13.47;;;9.57;;
16699;SDS011;8466;52.286;21.124;2023-12-20T14:46:21;14.07;;;8.43;;
16699;SDS011;8466;52.286;21.124;2023-12-20T14:48:51;9.97;;;8.97;;
16699;SDS011;8466;52.286;21.124;2023-12-20T14:51:21;9.50;;;8.50;;
16699;SDS011;8466;52.286;21.124;2023-12-20T14:53:52;15.77;;;11.03;;
16699;SDS011;8466;52.286;21.124;2023-12-20T14:56:22;10.13;;;9.00;;
16699;SDS011;8466;52.286;21.124;2023-12-20T14:58:54;11.03;;;9.60;;
16699;SDS011;8466;52.286;21.124;2023-12-20T15:01:27;9.23;;;8.23;;
16699;SDS011;8466;52.286;21.124;2023-12-20T15:03:56;12.57;;;8.90;;
16699;SDS011;8466;52.286;21.124;2023-12-20T15:06:28;9.53;;;8.00;;
16699;SDS011;8466;52.286;21.124;2023-12-20T15:08:58;9.57;;;8.57;;
16699;SDS011;8466;52.286;21.124;2023-12-20T15:11:31;10.60;;;7.07;;
16699;SDS011;8466;52.286;21.124;2023-12-20T15:14:03;11.10;;;8.03;;
16699;SDS011;8466;52.286;21.124;2023-12-20T15:16:32;11.70;;;8.97;;
16699;SDS011;8466;52.286;21.124;2023-12-20T15:19:10;12.67;;;8.00;;
16699;SDS011;8466;52.286;21.124;2023-12-20T15:21:39;14.80;;;9.97;;
16699;SDS011;8466;52.286;21.124;2023-12-20T15:24:13;9.83;;;7.43;;